createdAt,value
2022-08-24T04:38:52.967Z,69.929001
2022-08-24T04:41:08.301Z,71.153
2022-08-24T04:43:24.650Z,71.939003
2022-08-24T04:45:40.058Z,71.778
2022-08-24T04:47:54.375Z,71.233002
2022-08-24T04:50:08.804Z,70.613998
2022-08-24T04:52:23.156Z,69.981003
2022-08-24T04:54:37.713Z,69.356003
2022-08-24T04:56:52.077Z,68.855003
2022-08-24T04:59:07.565Z,68.267998
2022-08-24T05:01:21.999Z,67.636002
2022-08-24T05:03:36.328Z,67.153
2022-08-24T05:05:50.788Z,67.004997
2022-08-24T05:08:05.152Z,66.458
2022-08-24T05:10:19.516Z,66.177002
2022-08-24T05:12:33.864Z,65.782997
2022-08-24T05:14:48.258Z,65.552002
2022-08-24T05:17:02.915Z,65.387001
2022-08-24T05:19:19.998Z,65.342003
2022-08-24T05:21:34.345Z,65.406998
2022-08-24T05:23:49.707Z,65.274002
2022-08-24T05:26:04.105Z,65.164001
2022-08-24T05:28:18.565Z,65.161003
2022-08-24T05:30:33.923Z,65.136002
2022-08-24T05:32:51.280Z,65.139
2022-08-24T05:35:05.710Z,65.110001
2022-08-24T05:37:20.078Z,65.007004
2022-08-24T05:39:34.462Z,64.887001
2022-08-24T05:41:48.836Z,64.908997
2022-08-24T05:44:06.611Z,64.953003
2022-08-24T05:46:18.655Z,64.900002
2022-08-24T05:48:32.969Z,64.799004
2022-08-24T05:50:47.409Z,64.927002
2022-08-24T05:53:01.771Z,64.957001
2022-08-24T05:55:16.190Z,64.969002
2022-08-24T05:57:30.707Z,65
2022-08-24T05:59:45.082Z,64.931999
2022-08-24T06:01:59.536Z,64.805
2022-08-24T06:04:13.817Z,64.856003
2022-08-24T06:06:28.159Z,64.903
2022-08-24T06:08:42.627Z,64.857002
2022-08-24T06:10:57.012Z,64.769997
2022-08-24T06:13:11.404Z,64.627998
2022-08-24T06:15:25.786Z,64.537003
2022-08-24T06:17:40.276Z,64.334
2022-08-24T06:19:54.589Z,64.170998
2022-08-24T06:22:08.991Z,64.095001
2022-08-24T06:24:23.545Z,64.035004
2022-08-24T06:26:38.900Z,63.937
2022-08-24T06:28:54.260Z,63.889999
2022-08-24T06:31:08.696Z,63.837002
2022-08-24T06:33:23.136Z,63.776001
2022-08-24T06:35:37.472Z,63.652
2022-08-24T06:37:54.863Z,63.481998
2022-08-24T06:40:09.314Z,63.396
2022-08-24T06:42:23.599Z,63.251999
2022-08-24T06:44:37.987Z,63.213001
2022-08-24T06:46:52.462Z,62.977001
2022-08-24T06:49:06.738Z,62.890999
2022-08-24T06:51:21.171Z,62.723
2022-08-24T06:53:35.555Z,62.275002
2022-08-24T06:55:49.951Z,61.929001
2022-08-24T06:58:05.343Z,61.75
2022-08-24T07:00:19.748Z,61.610001
2022-08-24T07:02:34.224Z,61.838001
2022-08-24T07:04:48.559Z,61.838001
2022-08-24T07:07:03.015Z,61.751999
2022-08-24T07:09:17.366Z,61.808998
2022-08-24T07:11:31.900Z,61.687
2022-08-24T07:13:46.288Z,61.460999
2022-08-24T07:16:00.717Z,61.224998
2022-08-24T07:18:15.068Z,60.77
2022-08-24T07:20:29.584Z,60.445999
2022-08-24T07:22:43.959Z,58.966
2022-08-24T07:24:58.389Z,58.395
2022-08-24T07:27:12.761Z,57.877998
2022-08-24T07:30:04.764Z,56.745998
2022-08-24T07:31:44.501Z,56.217999
2022-08-24T07:33:58.808Z,55.745998
2022-08-24T07:36:16.965Z,55.151001
2022-08-24T07:38:30.480Z,54.867001
2022-08-24T07:41:05.424Z,54.675999
2022-08-24T07:43:02.239Z,54.521
2022-08-24T07:45:16.623Z,54.262001
2022-08-24T07:47:41.800Z,54.196999
2022-08-24T07:49:48.342Z,53.436001
2022-08-24T07:52:02.657Z,52.269001
2022-08-24T07:54:17.101Z,52.305
2022-08-24T07:56:31.471Z,52.117001
2022-08-24T07:58:45.874Z,52.356998
2022-08-24T08:01:02.237Z,51.577
2022-08-24T08:03:16.709Z,50.819
2022-08-24T08:05:31.092Z,50.264
2022-08-24T08:07:46.764Z,50.330002
2022-08-24T08:10:01.945Z,50.409
2022-08-24T08:12:16.308Z,50.507999
2022-08-24T08:14:30.762Z,50.252998
2022-08-24T08:16:45.153Z,49.987
2022-08-24T08:19:12.991Z,50.095001
2022-08-24T08:21:16.902Z,49.896
2022-08-24T08:23:31.253Z,49.223
2022-08-24T08:25:47.358Z,48.708
2022-08-24T08:28:04.152Z,48.465
2022-08-24T08:30:17.937Z,48.632
2022-08-24T08:32:32.301Z,48.334
2022-08-24T08:34:46.812Z,48.328999
2022-08-24T08:37:01.122Z,47.997002
2022-08-24T08:39:15.601Z,47.528999
2022-08-24T08:41:29.958Z,47.396999
2022-08-24T08:43:47.284Z,47.080002
2022-08-24T08:46:01.774Z,46.701
2022-08-24T08:48:16.061Z,46.476002
2022-08-24T08:50:30.425Z,46.394001
2022-08-24T08:52:44.799Z,46.592999
2022-08-24T08:54:59.163Z,46.655998
2022-08-24T08:57:17.333Z,46.011002
2022-08-24T08:59:28.911Z,45.433998
2022-08-24T09:01:47.198Z,45.257
2022-08-24T09:03:59.641Z,45.077
2022-08-24T09:06:13.994Z,45.008999
2022-08-24T09:08:28.307Z,44.858002
2022-08-24T09:10:42.700Z,44.334999
2022-08-24T09:12:57.094Z,43.963001
2022-08-24T09:15:11.540Z,44.019001
2022-08-24T09:17:25.900Z,44.112999
2022-08-24T09:19:40.334Z,43.851002
2022-08-24T09:21:54.699Z,43.557999
2022-08-24T09:24:09.050Z,43.384998
2022-08-24T09:26:23.419Z,43.437
2022-08-24T09:28:37.749Z,43.681999
2022-08-24T09:30:55.253Z,43.743
2022-08-24T09:33:09.502Z,43.866001
2022-08-24T09:35:26.894Z,44.055
2022-08-24T09:37:42.971Z,43.799
2022-08-24T09:39:54.608Z,43.654999
2022-08-24T09:42:08.939Z,43.610001
2022-08-24T09:44:23.311Z,43.701
2022-08-24T09:46:37.741Z,44.144001
2022-08-24T09:48:52.108Z,44.25
2022-08-24T09:51:07.480Z,44.185001
2022-08-24T09:53:21.826Z,44.411999
2022-08-24T09:55:36.125Z,44.736
2022-08-24T09:58:00.360Z,44.785999
2022-08-24T10:00:07.867Z,44.599998
2022-08-24T10:02:22.305Z,44.333
2022-08-24T10:04:36.758Z,44.053001
2022-08-24T10:06:51.058Z,43.898998
2022-08-24T10:09:05.422Z,43.771999
2022-08-24T10:11:19.789Z,43.476002
2022-08-24T10:13:34.202Z,42.852001
2022-08-24T10:15:48.560Z,42.863998
2022-08-24T10:18:03.070Z,42.986
2022-08-24T10:20:17.327Z,42.242001
2022-08-24T10:22:31.699Z,41.997002
2022-08-24T10:24:46.077Z,42.125
2022-08-24T10:27:00.471Z,42.141998
2022-08-24T10:29:14.872Z,42.042999
2022-08-24T10:31:29.342Z,41.911999
2022-08-24T10:33:43.636Z,41.643002
2022-08-24T10:35:58.073Z,41.014
2022-08-24T10:38:13.428Z,40.720001
2022-08-24T10:40:27.856Z,40.056999
2022-08-24T10:42:42.219Z,40.129002
2022-08-24T10:44:56.581Z,40.604
2022-08-24T10:47:11.013Z,40.810001
2022-08-24T10:49:25.373Z,40.571999
2022-08-24T10:51:39.736Z,40.501999
2022-08-24T10:53:54.107Z,40.393002
2022-08-24T10:56:08.479Z,39.775002
2022-08-24T10:58:22.827Z,39.845001
2022-08-24T11:00:37.166Z,39.785999
2022-08-24T11:02:52.501Z,39.540001
2022-08-24T11:05:06.880Z,39.583
2022-08-24T11:07:21.314Z,39.296001
2022-08-24T11:09:35.692Z,39.289001
2022-08-24T11:11:50.114Z,38.905998
2022-08-24T11:14:06.308Z,38.484001
2022-08-24T11:16:20.586Z,38.403
2022-08-24T11:18:34.867Z,38.382
2022-08-24T11:20:49.239Z,38.308998
2022-08-24T11:23:03.588Z,37.882
2022-08-24T11:25:17.945Z,37.714001
2022-08-24T11:27:32.393Z,37.923
2022-08-24T11:29:46.760Z,37.882
2022-08-24T11:32:01.159Z,38.131001
2022-08-24T11:34:15.545Z,38.334
2022-08-24T11:36:30.933Z,38.393002
2022-08-24T11:38:45.900Z,38.162998
2022-08-24T11:40:59.742Z,37.716
2022-08-24T11:43:16.153Z,37.834
2022-08-24T11:45:30.569Z,37.747002
2022-08-24T11:47:44.954Z,37.778
2022-08-24T11:49:59.357Z,37.125
2022-08-24T11:52:13.692Z,37.466
2022-08-24T11:54:28.050Z,37.415001
2022-08-24T11:56:42.439Z,37.484001
2022-08-24T11:58:56.790Z,37.096001
2022-08-24T12:01:11.148Z,36.793999
2022-08-24T12:03:25.710Z,36.127998
2022-08-24T12:05:40.063Z,36.396
2022-08-24T12:07:55.577Z,36.098999
2022-08-24T12:10:09.988Z,36.058998
2022-08-24T12:12:24.340Z,36.048
2022-08-24T12:14:38.699Z,35.577
2022-08-24T12:16:53.096Z,35.834
2022-08-24T12:19:07.602Z,35.223999
2022-08-24T12:21:23.093Z,35.313999
2022-08-24T12:23:37.417Z,34.971001
2022-08-24T12:25:51.821Z,34.578999
2022-08-24T12:28:06.435Z,34.120998
2022-08-24T12:30:20.810Z,33.514
2022-08-24T12:32:35.151Z,33.611
2022-08-24T12:34:50.026Z,33.097
2022-08-24T12:37:10.822Z,32.702999
2022-08-24T12:39:24.310Z,32.306
2022-08-24T12:41:38.684Z,32.157001
2022-08-24T12:43:53.059Z,31.417
2022-08-24T12:46:07.570Z,31.18
2022-08-24T12:48:21.872Z,31.069
2022-08-24T12:50:36.305Z,31.547001
2022-08-24T12:52:51.954Z,31.139
2022-08-24T12:55:06.291Z,31.142
2022-08-24T12:57:20.797Z,31.091999
2022-08-24T12:59:37.147Z,30.641001
2022-08-24T13:01:51.569Z,30.392
2022-08-24T13:04:05.899Z,30.007999
2022-08-24T13:06:20.416Z,30.254999
2022-08-24T13:08:36.854Z,29.565001
2022-08-24T13:10:52.196Z,29.695999
2022-08-24T13:13:06.593Z,29.488001
2022-08-24T13:15:22.020Z,28.959
2022-08-24T13:17:36.440Z,28.907
2022-08-24T13:19:51.820Z,29.716999
2022-08-24T13:22:09.986Z,29.785
2022-08-24T13:24:23.673Z,29.937
